LLBG

Tel Aviv International

Airport
ICAO code
LLBG
Summary
ICAO Region
MID
ICAO Territory
Location

Lod,

Coordinates
32° 0' 41" N , 34° 53' 12" E
KCC
Csa
Metar
Observation
LLBG 081620Z 32008KT CAVOK 29/20 Q1007 NOSIG
Station
Ben-Gurion International Airport
Date/Time
2022-08-08 16:20:00
Wind direction
320°
Wind speed
08 kts
Lowest cloud amount
clouds and visibility OK
Temperature
29°C
Dew point
20°C
Humidity
58%
QNH
1007 hPa
Weather condition
n/a

Description

Ben Gurion International Airport‎, also referred to by its Hebrew acronym Natbag, is located near the city of Lod, 15 km southeast of Tel Aviv.

Climatology

Dry-summer subtropical ”Mediterranean" climate (Köppen climate classification Csa) - characterized by hot, dry summers and mild winters. During the summer, subtropical high pressure cells dominate, making rainfall unlikely except for the occasional thunderstorm. In the winter, periodic storms bring rain (snow at higher elevations).

Runways

Designator Length Width Surface Rops
3/21 1780 45 ASP Yes/Yes
12/30 3112 45 ASP Yes/Yes
8/26 3657 45 ASP Yes/Yes

Airport map

Aerial View

SKYbrary Partners:

Safety knowledge contributed by: